Time;durP1;ratioP1;P1;durP2;ratioP2;P2;SDS_P1;SDS_P2;PMS_P1;PMS_P2;Temp;Humidity;BMP_temperature;BMP_pressure;BME280_temperature;BME280_humidity;BME280_pressure;Samples;Min_cycle;Max_cycle;Signal;HPM_P1;HPM_P2
2023/11/28 00:01:31;;;;;;;;;;;;;;;5.28;63.23;98197.03;4462433;32;33867;-89
2023/11/28 00:03:59;;;;;;;;;;;;;;;5.36;63.31;98185.28;4454890;32;33175;-90
2023/11/28 00:06:27;;;;;;;;;;;;;;;5.11;64.28;98182.97;4474537;32;33922;-90
2023/11/28 00:08:54;;;;;;;;;;;;;;;5.24;63.86;98180.63;4472161;32;34264;-88
2023/11/28 00:11:23;;;;;;;;;;;;;;;4.80;65.62;98187.97;4466689;32;33553;-89
2023/11/28 00:13:50;;;;;;;;;;;;;;;4.89;65.28;98190.16;4464721;32;34449;-87
2023/11/28 00:16:18;;;;;;;;;;;;;;;5.00;64.85;98182.66;4461947;32;32543;-87
2023/11/28 00:18:46;;;;;;;;;;;;;;;5.17;63.79;98176.59;4463124;32;33765;-87
2023/11/28 00:21:14;;;;;;;;;;;;;;;4.94;65.18;98174.22;4464108;32;33692;-87
2023/11/28 00:23:42;;;;;;;;;;;;;;;4.93;65.50;98170.75;4461747;32;33693;-87
2023/11/28 00:26:10;;;;;;;;;;;;;;;5.00;65.87;98160.88;4475206;32;34151;-87
2023/11/28 00:28:41;;;;;;;;;;;;;;;4.79;66.71;98171.41;4472704;32;34849;-89
2023/11/28 00:31:09;;;;;;;;;;;;;;;5.15;65.54;98154.91;4460862;32;33176;-88
2023/11/28 00:33:37;;;;;;;;;;;;;;;5.33;64.54;98159.25;4474361;32;34549;-88
2023/11/28 00:36:04;;;;;;;;;;;;;;;5.42;63.71;98157.13;4476852;32;32935;-86
2023/11/28 00:38:32;;;;;;;;;;;;;;;5.26;64.24;98152.62;4461455;32;34307;-86
2023/11/28 00:40:59;;;;;;;;;;;;;;;4.97;66.17;98145.31;4451101;32;32947;-86
2023/11/28 00:43:27;;;;;;;;;;;;;;;5.23;65.01;98150.16;4476397;32;34825;-87
2023/11/28 00:45:54;;;;;;;;;;;;;;;5.04;65.60;98146.75;4474569;32;32689;-86
2023/11/28 00:48:22;;;;;;;;;;;;;;;5.17;65.31;98137.34;4461960;32;34970;-86
2023/11/28 00:50:53;;;;;;;;;;;;;;;5.36;65.06;98122.47;4473640;32;34142;-86
2023/11/28 00:53:20;;;;;;;;;;;;;;;5.11;65.71;98135.03;4458554;32;33414;-86
2023/11/28 00:55:48;;;;;;;;;;;;;;;5.38;65.05;98120.63;4461670;32;32688;-87
2023/11/28 00:58:16;;;;;;;;;;;;;;;5.35;64.92;98125.16;4473554;32;34680;-86
2023/11/28 01:00:44;;;;;;;;;;;;;;;5.31;65.29;98106.13;4475073;32;35021;-87
2023/11/28 01:03:12;;;;;;;;;;;;;;;5.26;65.59;98109.91;4474688;32;34730;-87
2023/11/28 01:05:48;;;;;;;;;;;;;;;5.52;65.02;98099.00;4451057;32;31903;-88
2023/11/28 01:08:16;;;;;;;;;;;;;;;5.54;64.66;98086.66;4461519;32;34035;-87
2023/11/28 01:10:43;;;;;;;;;;;;;;;5.47;65.06;98077.44;4464253;32;32576;-87
2023/11/28 01:13:11;;;;;;;;;;;;;;;5.33;65.33;98079.91;4459747;32;34365;-87
2023/11/28 01:15:39;;;;;;;;;;;;;;;5.29;65.48;98073.97;4461842;32;33050;-86
2023/11/28 01:18:06;;;;;;;;;;;;;;;5.19;67.02;98067.50;4462410;32;32997;-87
2023/11/28 01:20:34;;;;;;;;;;;;;;;5.19;66.55;98062.25;4459451;32;33724;-86
2023/11/28 01:23:02;;;;;;;;;;;;;;;5.53;65.84;98055.34;4479430;32;32792;-87
2023/11/28 01:25:30;;;;;;;;;;;;;;;5.59;64.88;98050.63;4476798;32;33658;-87
2023/11/28 01:27:57;;;;;;;;;;;;;;;5.55;65.54;98037.75;4464366;32;34716;-87
2023/11/28 01:30:25;;;;;;;;;;;;;;;5.58;65.30;98035.84;4460255;32;33364;-88
2023/11/28 01:32:52;;;;;;;;;;;;;;;5.71;65.41;98027.34;4477071;32;34876;-88
2023/11/28 01:35:20;;;;;;;;;;;;;;;5.67;64.95;98023.19;4477957;32;33592;-88
2023/11/28 01:37:48;;;;;;;;;;;;;;;5.35;66.39;98023.06;4454746;32;33245;-87
2023/11/28 01:40:16;;;;;;;;;;;;;;;5.43;65.87;98018.31;4475500;32;33276;-88
2023/11/28 01:42:45;;;;;;;;;;;;;;;5.74;65.14;98008.84;4460796;32;32325;-87
2023/11/28 01:45:14;;;;;;;;;;;;;;;5.94;64.47;98007.84;4463638;32;32534;-87
2023/11/28 01:47:42;;;;;;;;;;;;;;;5.65;64.86;97997.94;4478710;32;34108;-88
2023/11/28 01:50:09;;;;;;;;;;;;;;;5.28;66.75;97999.00;4463922;32;33728;-87
2023/11/28 01:52:37;;;;;;;;;;;;;;;5.73;65.61;97994.91;4467555;32;32573;-87
2023/11/28 01:55:05;;;;;;;;;;;;;;;5.87;65.11;97981.94;4459579;32;32449;-87
2023/11/28 01:57:32;;;;;;;;;;;;;;;5.67;65.39;97989.16;4463737;32;33261;-88
2023/11/28 02:00:00;;;;;;;;;;;;;;;5.61;65.90;97979.88;4453761;32;32748;-88
2023/11/28 02:02:28;;;;;;;;;;;;;;;5.70;65.93;97978.50;4466868;32;33234;-87
2023/11/28 02:04:56;;;;;;;;;;;;;;;5.61;65.72;97969.41;4462910;32;32621;-87
2023/11/28 02:07:23;;;;;;;;;;;;;;;5.50;66.58;97961.25;4462919;32;32874;-88
2023/11/28 02:09:51;;;;;;;;;;;;;;;5.13;67.30;97960.53;4462084;32;34138;-89
2023/11/28 02:12:18;;;;;;;;;;;;;;;5.20;67.98;97953.22;4471433;32;34575;-90
2023/11/28 02:14:46;;;;;;;;;;;;;;;5.62;66.23;97944.91;4463381;32;33366;-89
2023/11/28 02:17:14;;;;;;;;;;;;;;;5.44;66.73;97938.84;4449653;32;32585;-88
2023/11/28 02:19:42;;;;;;;;;;;;;;;5.57;66.89;97937.28;4460949;32;34032;-89
2023/11/28 02:22:10;;;;;;;;;;;;;;;5.65;66.74;97929.88;4464187;32;33800;-88
2023/11/28 02:24:39;;;;;;;;;;;;;;;5.83;65.94;97920.16;4472884;32;33255;-89
2023/11/28 02:27:06;;;;;;;;;;;;;;;5.62;66.77;97918.72;4462231;32;34470;-89
2023/11/28 02:29:33;;;;;;;;;;;;;;;5.59;66.89;97918.88;4449164;32;33121;-90
2023/11/28 02:32:01;;;;;;;;;;;;;;;5.82;65.48;97905.37;4467074;32;32799;-91
2023/11/28 02:34:29;;;;;;;;;;;;;;;5.75;66.40;97904.03;4462304;32;32379;-90
2023/11/28 02:36:56;;;;;;;;;;;;;;;5.77;66.30;97902.16;4462929;32;32465;-87
2023/11/28 02:39:24;;;;;;;;;;;;;;;5.70;66.62;97903.44;4464053;32;34280;-87
2023/11/28 02:41:52;;;;;;;;;;;;;;;6.10;65.47;97903.91;4473784;32;33352;-87
2023/11/28 02:44:20;;;;;;;;;;;;;;;5.87;65.87;97895.50;4473033;32;32927;-87
2023/11/28 02:46:47;;;;;;;;;;;;;;;6.10;65.53;97883.78;4467432;32;32948;-87
2023/11/28 02:49:15;;;;;;;;;;;;;;;6.11;65.52;97882.00;4477010;32;34108;-87
2023/11/28 02:51:43;;;;;;;;;;;;;;;5.88;66.95;97875.37;4475963;32;34257;-89
2023/11/28 02:54:10;;;;;;;;;;;;;;;5.80;66.69;97881.06;4462369;32;33278;-88
2023/11/28 02:56:38;;;;;;;;;;;;;;;5.75;67.47;97882.25;4463963;32;33897;-88
2023/11/28 02:59:05;;;;;;;;;;;;;;;6.09;66.13;97870.78;4476774;32;35337;-87
2023/11/28 03:01:33;;;;;;;;;;;;;;;5.93;66.52;97875.16;4454902;32;34315;-87
2023/11/28 03:04:01;;;;;;;;;;;;;;;6.01;65.96;97878.19;4454655;32;33008;-86
2023/11/28 03:06:28;;;;;;;;;;;;;;;6.07;66.05;97868.22;4464833;32;32850;-87
2023/11/28 03:08:55;;;;;;;;;;;;;;;6.42;65.34;97857.50;4480190;31;33629;-87
2023/11/28 03:11:23;;;;;;;;;;;;;;;6.51;64.77;97866.63;4460603;32;33277;-87
2023/11/28 03:13:50;;;;;;;;;;;;;;;6.07;66.51;97862.97;4466638;32;32713;-86
2023/11/28 03:16:18;;;;;;;;;;;;;;;6.33;65.35;97856.25;4460530;32;33060;-87
2023/11/28 03:18:45;;;;;;;;;;;;;;;6.47;65.52;97849.38;4450936;32;33472;-87
2023/11/28 03:21:13;;;;;;;;;;;;;;;6.48;65.20;97846.66;4476080;32;32943;-86
2023/11/28 03:23:41;;;;;;;;;;;;;;;6.68;64.13;97848.12;4476270;32;33441;-88
2023/11/28 03:26:09;;;;;;;;;;;;;;;6.37;65.74;97849.06;4471745;32;33632;-87
2023/11/28 03:28:36;;;;;;;;;;;;;;;6.60;65.09;97842.50;4474876;32;33790;-87
2023/11/28 03:31:04;;;;;;;;;;;;;;;6.34;65.39;97836.97;4477406;32;33886;-87
2023/11/28 03:33:33;;;;;;;;;;;;;;;6.56;65.02;97838.38;4465281;32;33654;-86
2023/11/28 03:36:00;;;;;;;;;;;;;;;6.55;65.20;97837.53;4475767;32;32792;-87
2023/11/28 03:38:28;;;;;;;;;;;;;;;6.54;64.77;97841.06;4471964;32;34192;-87
2023/11/28 03:40:55;;;;;;;;;;;;;;;6.44;65.87;97836.44;4474288;32;34187;-87
2023/11/28 03:43:23;;;;;;;;;;;;;;;6.55;65.17;97834.03;4452669;32;32992;-87
2023/11/28 03:45:51;;;;;;;;;;;;;;;6.73;64.54;97835.56;4466278;32;33379;-85
2023/11/28 03:48:18;;;;;;;;;;;;;;;6.56;65.67;97828.72;4477075;32;33954;-87
2023/11/28 03:50:45;;;;;;;;;;;;;;;6.64;64.93;97829.09;4475099;32;34936;-87
2023/11/28 03:53:13;;;;;;;;;;;;;;;6.68;64.78;97822.72;4453372;32;32959;-87
2023/11/28 03:55:41;;;;;;;;;;;;;;;6.41;66.01;97819.13;4463225;32;33794;-87
2023/11/28 03:58:08;;;;;;;;;;;;;;;6.48;66.05;97817.81;4463548;32;33212;-86
2023/11/28 04:00:36;;;;;;;;;;;;;;;6.43;65.97;97811.16;4471548;32;34240;-87
2023/11/28 04:03:03;;;;;;;;;;;;;;;6.52;66.22;97802.75;4459972;32;31827;-86
2023/11/28 04:05:31;;;;;;;;;;;;;;;6.30;66.93;97811.88;4477762;32;33007;-86
2023/11/28 04:07:58;;;;;;;;;;;;;;;6.07;67.60;97805.34;4463890;32;32442;-87
2023/11/28 04:10:26;;;;;;;;;;;;;;;6.62;65.74;97801.28;4462525;32;34261;-87
2023/11/28 04:12:53;;;;;;;;;;;;;;;6.22;66.90;97798.37;4481545;32;33222;-87
2023/11/28 04:15:21;;;;;;;;;;;;;;;6.24;66.74;97796.50;4474464;32;34177;-87
2023/11/28 04:17:49;;;;;;;;;;;;;;;5.94;68.47;97793.03;4454049;32;33335;-88
2023/11/28 04:20:16;;;;;;;;;;;;;;;6.10;68.36;97788.59;4459097;32;34206;-87
2023/11/28 04:22:43;;;;;;;;;;;;;;;6.15;67.30;97792.63;4464842;32;33050;-88
2023/11/28 04:25:11;;;;;;;;;;;;;;;6.24;67.22;97778.16;4444213;32;32591;-87
2023/11/28 04:27:38;;;;;;;;;;;;;;;6.54;66.07;97785.16;4464333;32;34839;-87
2023/11/28 04:30:06;;;;;;;;;;;;;;;6.20;67.46;97775.81;4475682;32;34418;-88
2023/11/28 04:32:34;;;;;;;;;;;;;;;6.26;67.29;97778.06;4477774;32;33901;-89
2023/11/28 04:35:02;;;;;;;;;;;;;;;6.32;66.81;97778.56;4459663;32;33677;-89
2023/11/28 04:37:30;;;;;;;;;;;;;;;6.46;66.32;97771.66;4475891;32;32798;-88
2023/11/28 04:39:57;;;;;;;;;;;;;;;6.36;66.96;97769.59;4463456;32;34320;-89
2023/11/28 04:42:26;;;;;;;;;;;;;;;6.43;66.70;97777.09;4449953;32;32659;-89
2023/11/28 04:44:54;;;;;;;;;;;;;;;6.34;67.02;97768.81;4456586;32;32621;-89
2023/11/28 04:47:22;;;;;;;;;;;;;;;6.40;67.00;97771.06;4477167;32;35025;-89
2023/11/28 04:49:49;;;;;;;;;;;;;;;6.45;66.34;97754.22;4479844;32;34265;-89
2023/11/28 04:52:17;;;;;;;;;;;;;;;6.50;65.77;97749.56;4464962;32;33476;-88
2023/11/28 04:54:44;;;;;;;;;;;;;;;6.60;66.24;97751.56;4479428;32;32670;-89
2023/11/28 04:57:12;;;;;;;;;;;;;;;6.68;66.10;97751.91;4463034;32;33588;-89
2023/11/28 04:59:40;;;;;;;;;;;;;;;6.55;66.74;97744.87;4448948;32;34187;-89
2023/11/28 05:02:07;;;;;;;;;;;;;;;6.45;66.69;97738.50;4466149;32;34500;-89
2023/11/28 05:04:36;;;;;;;;;;;;;;;6.43;67.12;97737.75;4461200;32;33301;-89
2023/11/28 05:07:03;;;;;;;;;;;;;;;6.59;66.66;97736.75;4463818;32;33421;-88
2023/11/28 05:09:31;;;;;;;;;;;;;;;6.62;66.00;97727.84;4466279;32;34122;-89
2023/11/28 05:11:58;;;;;;;;;;;;;;;6.68;65.70;97724.84;4461606;32;32854;-88
2023/11/28 05:14:26;;;;;;;;;;;;;;;6.64;66.56;97732.06;4465244;32;33739;-88
2023/11/28 05:16:54;;;;;;;;;;;;;;;6.60;66.46;97719.25;4464638;32;32694;-88
2023/11/28 05:19:24;;;;;;;;;;;;;;;7.02;64.93;97715.75;4466777;32;33031;-90
2023/11/28 05:21:53;;;;;;;;;;;;;;;6.80;65.64;97724.13;4456752;32;32538;-92
2023/11/28 05:24:21;;;;;;;;;;;;;;;6.56;66.71;97718.59;4476004;32;34186;-91
2023/11/28 05:26:49;;;;;;;;;;;;;;;6.66;66.71;97714.47;4464921;32;33602;-91
2023/11/28 05:29:17;;;;;;;;;;;;;;;6.74;66.33;97714.00;4463270;32;32750;-90
2023/11/28 05:31:44;;;;;;;;;;;;;;;6.72;66.31;97710.62;4463981;32;33487;-91
2023/11/28 05:34:12;;;;;;;;;;;;;;;6.82;65.89;97719.59;4462436;32;32788;-91
2023/11/28 05:36:39;;;;;;;;;;;;;;;6.82;66.22;97708.28;4453368;32;33425;-91
2023/11/28 05:39:08;;;;;;;;;;;;;;;6.84;65.87;97691.50;4478984;32;34210;-90
2023/11/28 05:41:35;;;;;;;;;;;;;;;6.79;66.48;97692.72;4460693;32;33101;-90
2023/11/28 05:44:04;;;;;;;;;;;;;;;6.91;65.64;97692.81;4449981;32;32629;-91
2023/11/28 05:46:32;;;;;;;;;;;;;;;6.74;66.75;97700.03;4480748;32;33804;-91
2023/11/28 05:49:00;;;;;;;;;;;;;;;6.70;66.79;97696.78;4464080;32;34083;-90
2023/11/28 05:51:27;;;;;;;;;;;;;;;6.72;66.74;97694.03;4475116;32;32596;-90
2023/11/28 05:53:55;;;;;;;;;;;;;;;6.84;66.33;97690.69;4464017;32;33296;-90
2023/11/28 05:56:23;;;;;;;;;;;;;;;6.97;66.24;97691.56;4474426;32;34854;-90
2023/11/28 05:58:50;;;;;;;;;;;;;;;6.84;66.96;97675.78;4464329;32;33467;-91
2023/11/28 06:01:18;;;;;;;;;;;;;;;6.95;66.20;97676.87;4464160;32;32357;-90
2023/11/28 06:03:48;;;;;;;;;;;;;;;7.01;65.47;97679.09;4461945;32;34089;-90
2023/11/28 06:06:15;;;;;;;;;;;;;;;7.16;64.96;97670.25;4462184;32;34493;-90
2023/11/28 06:08:43;;;;;;;;;;;;;;;7.08;64.75;97675.19;4475839;32;34171;-90
2023/11/28 06:11:12;;;;;;;;;;;;;;;6.86;65.94;97673.88;4452791;32;32249;-91
2023/11/28 06:13:41;;;;;;;;;;;;;;;6.90;66.05;97675.38;4461620;32;34112;-89
2023/11/28 06:16:08;;;;;;;;;;;;;;;6.97;65.86;97681.06;4472840;32;33936;-90
2023/11/28 06:18:37;;;;;;;;;;;;;;;7.32;64.64;97670.97;4465590;32;32688;-89
2023/11/28 06:21:07;;;;;;;;;;;;;;;7.03;65.63;97669.37;4476433;32;33697;-89
2023/11/28 06:23:34;;;;;;;;;;;;;;;6.61;66.98;97674.56;4474906;31;33964;-89
2023/11/28 06:26:02;;;;;;;;;;;;;;;6.35;68.72;97672.69;4473813;32;33122;-89
2023/11/28 06:28:29;;;;;;;;;;;;;;;6.51;68.05;97677.84;4473065;32;34575;-88
2023/11/28 06:30:57;;;;;;;;;;;;;;;7.04;65.99;97681.56;4456006;31;32663;-89
2023/11/28 06:33:25;;;;;;;;;;;;;;;7.22;65.20;97680.38;4471708;31;34778;-88
2023/11/28 06:35:52;;;;;;;;;;;;;;;7.31;64.84;97674.56;4451375;32;34302;-89
2023/11/28 06:38:19;;;;;;;;;;;;;;;6.87;65.97;97669.47;4460283;32;34265;-89
2023/11/28 06:40:47;;;;;;;;;;;;;;;6.63;67.37;97677.09;4458809;32;32243;-88
2023/11/28 06:43:15;;;;;;;;;;;;;;;6.85;66.84;97668.75;4449230;32;32597;-86
2023/11/28 06:45:42;;;;;;;;;;;;;;;6.77;66.77;97679.69;4477841;32;34969;-86
2023/11/28 06:48:10;;;;;;;;;;;;;;;6.84;66.71;97669.69;4461721;32;34142;-86
2023/11/28 06:50:37;;;;;;;;;;;;;;;6.75;67.34;97671.09;4474097;32;33111;-86
2023/11/28 06:53:05;;;;;;;;;;;;;;;7.07;66.39;97660.34;4459461;32;32565;-86
2023/11/28 06:55:32;;;;;;;;;;;;;;;6.97;66.78;97660.09;4476909;32;34096;-86
2023/11/28 06:58:00;;;;;;;;;;;;;;;7.11;66.54;97646.09;4476361;32;34260;-87
2023/11/28 07:00:28;;;;;;;;;;;;;;;7.36;65.21;97654.09;4447871;32;32797;-86
2023/11/28 07:02:55;;;;;;;;;;;;;;;7.01;65.78;97655.50;4461821;32;33163;-86
2023/11/28 07:05:23;;;;;;;;;;;;;;;6.86;66.52;97649.44;4461718;31;32781;-86
2023/11/28 07:07:50;;;;;;;;;;;;;;;6.97;66.72;97643.50;4459391;32;31513;-86
2023/11/28 07:10:18;;;;;;;;;;;;;;;6.97;67.36;97643.50;4461927;32;32355;-87
2023/11/28 07:12:45;;;;;;;;;;;;;;;6.76;67.64;97641.31;4465338;31;33733;-87
2023/11/28 07:15:13;;;;;;;;;;;;;;;6.98;66.87;97643.44;4464962;31;33577;-87
2023/11/28 07:17:42;;;;;;;;;;;;;;;7.17;66.79;97635.22;4462344;32;33142;-88
2023/11/28 07:20:11;;;;;;;;;;;;;;;7.11;66.00;97630.34;4476761;31;33625;-86
2023/11/28 07:22:39;;;;;;;;;;;;;;;7.24;66.45;97631.25;4455048;32;35010;-86
2023/11/28 07:25:09;;;;;;;;;;;;;;;7.63;64.69;97625.16;4448488;32;33361;-87
2023/11/28 07:27:37;;;;;;;;;;;;;;;7.42;65.32;97630.06;4468210;31;33843;-87
2023/11/28 07:30:06;;;;;;;;;;;;;;;7.46;65.08;97624.59;4476704;31;34140;-87
2023/11/28 07:32:55;;;;;;;;;;;;;;;7.48;64.87;97618.28;4459738;32;37635;-87
2023/11/28 07:35:32;;;;;;;;;;;;;;;7.46;65.45;97616.72;4453410;32;32592;-87
2023/11/28 07:38:07;;;;;;;;;;;;;;;7.15;66.14;97631.84;4461696;32;33863;-86
2023/11/28 07:40:43;;;;;;;;;;;;;;;7.31;65.97;97627.28;4453563;32;32212;-87
2023/11/28 07:43:13;;;;;;;;;;;;;;;7.32;66.25;97623.72;4454216;31;35762;-86
2023/11/28 07:45:41;;;;;;;;;;;;;;;7.26;66.34;97629.34;4452860;32;33464;-86
2023/11/28 07:48:08;;;;;;;;;;;;;;;7.32;66.30;97623.72;4462185;32;34474;-86
2023/11/28 07:50:36;;;;;;;;;;;;;;;7.55;65.74;97619.59;4461967;31;33382;-86
2023/11/28 07:53:05;;;;;;;;;;;;;;;7.56;65.39;97623.91;4464149;32;33045;-87
2023/11/28 07:55:33;;;;;;;;;;;;;;;7.38;66.27;97625.94;4454766;32;34158;-87
2023/11/28 07:58:01;;;;;;;;;;;;;;;7.35;66.32;97628.75;4455575;31;30890;-86
2023/11/28 08:00:32;;;;;;;;;;;;;;;7.26;66.33;97623.25;4454559;32;33136;-87
2023/11/28 08:03:02;;;;;;;;;;;;;;;7.25;67.31;97614.53;4462266;31;33656;-84
2023/11/28 08:05:30;;;;;;;;;;;;;;;7.27;67.55;97607.44;4471916;31;33885;-83
2023/11/28 08:07:58;;;;;;;;;;;;;;;7.30;66.99;97601.97;4468275;32;34607;-84
2023/11/28 08:10:26;;;;;;;;;;;;;;;7.51;66.73;97602.34;4451577;32;32858;-84
2023/11/28 08:12:54;;;;;;;;;;;;;;;7.60;66.24;97601.75;4445275;32;34315;-84
2023/11/28 08:15:22;;;;;;;;;;;;;;;7.98;65.18;97593.06;4474684;32;34270;-85
2023/11/28 08:17:50;;;;;;;;;;;;;;;7.72;65.45;97586.94;4474079;32;33582;-84
2023/11/28 08:20:18;;;;;;;;;;;;;;;7.73;65.98;97585.97;4450337;32;32663;-86
2023/11/28 08:22:45;;;;;;;;;;;;;;;7.49;66.33;97585.84;4459439;32;34247;-87
2023/11/28 08:25:13;;;;;;;;;;;;;;;7.82;66.07;97588.00;4457274;32;33257;-87
2023/11/28 08:27:41;;;;;;;;;;;;;;;7.79;66.21;97579.50;4450596;32;34280;-85
2023/11/28 08:30:09;;;;;;;;;;;;;;;7.80;65.86;97586.44;4474169;32;33285;-85
2023/11/28 08:32:37;;;;;;;;;;;;;;;7.66;66.47;97584.72;4476970;32;33599;-85
2023/11/28 08:35:05;;;;;;;;;;;;;;;7.87;66.21;97585.03;4477972;32;35097;-85
2023/11/28 08:37:36;;;;;;;;;;;;;;;7.72;66.49;97594.81;4464343;32;33297;-84
2023/11/28 08:40:09;;;;;;;;;;;;;;;7.59;66.88;97589.53;4455675;32;32788;-84
2023/11/28 08:42:37;;;;;;;;;;;;;;;7.48;67.48;97580.69;4473783;32;33778;-85
2023/11/28 08:45:04;;;;;;;;;;;;;;;7.51;67.69;97575.25;4477002;32;35406;-84
2023/11/28 08:47:32;;;;;;;;;;;;;;;7.67;66.97;97575.91;4464178;32;34235;-85
2023/11/28 08:50:01;;;;;;;;;;;;;;;7.40;67.96;97558.41;4460013;32;33689;-85
2023/11/28 08:52:29;;;;;;;;;;;;;;;7.41;68.52;97567.97;4465078;32;33463;-84
2023/11/28 08:54:58;;;;;;;;;;;;;;;7.80;67.29;97573.28;4451395;32;34028;-84
2023/11/28 08:57:33;;;;;;;;;;;;;;;7.50;67.92;97573.53;4480996;32;33810;-85
2023/11/28 09:00:05;;;;;;;;;;;;;;;7.54;67.87;97569.78;4464062;32;33223;-84
2023/11/28 09:02:32;;;;;;;;;;;;;;;7.61;68.03;97565.81;4481465;32;33785;-84
2023/11/28 09:05:00;;;;;;;;;;;;;;;7.92;66.95;97554.87;4451551;32;34452;-84
2023/11/28 09:07:27;;;;;;;;;;;;;;;7.96;66.69;97558.16;4457376;32;33865;-85
2023/11/28 09:09:55;;;;;;;;;;;;;;;7.68;67.97;97561.81;4463875;32;32610;-84
2023/11/28 09:12:22;;;;;;;;;;;;;;;7.76;67.50;97564.78;4463765;32;33602;-84
2023/11/28 09:14:50;;;;;;;;;;;;;;;8.02;67.34;97556.88;4486668;31;34611;-84
2023/11/28 09:17:23;;;;;;;;;;;;;;;7.98;67.27;97560.69;4477577;32;33807;-84
2023/11/28 09:19:51;;;;;;;;;;;;;;;8.23;66.56;97551.94;4453263;32;31475;-84
2023/11/28 09:22:18;;;;;;;;;;;;;;;8.03;67.09;97543.66;4462843;32;34147;-84
2023/11/28 09:24:45;;;;;;;;;;;;;;;8.19;66.44;97539.00;4478481;32;34094;-84
2023/11/28 09:27:13;;;;;;;;;;;;;;;8.09;66.64;97537.13;4475606;32;33649;-84
2023/11/28 09:29:41;;;;;;;;;;;;;;;8.16;66.88;97525.22;4462355;32;33448;-84
2023/11/28 09:32:08;;;;;;;;;;;;;;;8.02;67.52;97522.72;4462524;32;33819;-84
2023/11/28 09:34:36;;;;;;;;;;;;;;;8.15;66.58;97513.88;4475092;32;35059;-84
2023/11/28 09:37:04;;;;;;;;;;;;;;;8.07;67.02;97510.09;4478262;32;34506;-84
2023/11/28 09:39:34;;;;;;;;;;;;;;;8.23;66.65;97509.88;4473471;32;33122;-84
2023/11/28 09:42:02;;;;;;;;;;;;;;;8.23;67.31;97512.50;4478411;32;33411;-84
2023/11/28 09:44:30;;;;;;;;;;;;;;;8.39;66.46;97513.94;4463385;32;33840;-84
2023/11/28 09:46:58;;;;;;;;;;;;;;;8.03;67.83;97516.53;4462040;32;33000;-84
2023/11/28 09:49:25;;;;;;;;;;;;;;;7.83;68.22;97512.62;4462038;32;33157;-84
2023/11/28 09:51:53;;;;;;;;;;;;;;;8.33;67.04;97506.47;4462514;32;33452;-84
2023/11/28 09:54:22;;;;;;;;;;;;;;;8.57;66.08;97503.06;4474322;32;33860;-84
2023/11/28 09:56:50;;;;;;;;;;;;;;;8.62;65.62;97500.94;4476546;32;33955;-84
2023/11/28 09:59:17;;;;;;;;;;;;;;;8.30;66.08;97497.97;4461459;32;34031;-84
2023/11/28 10:01:45;;;;;;;;;;;;;;;8.21;67.26;97504.69;4475175;32;33635;-84
2023/11/28 10:04:13;;;;;;;;;;;;;;;8.34;67.01;97502.88;4463046;32;34654;-84
2023/11/28 10:06:42;;;;;;;;;;;;;;;8.25;66.99;97505.34;4463587;32;32949;-84
2023/11/28 10:09:10;;;;;;;;;;;;;;;8.20;67.22;97508.28;4462668;32;32348;-84
2023/11/28 10:11:38;;;;;;;;;;;;;;;8.20;67.57;97492.50;4458093;32;33050;-84
2023/11/28 10:14:06;;;;;;;;;;;;;;;8.29;67.49;97498.91;4474902;32;34207;-84
2023/11/28 10:16:44;;;;;;;;;;;;;;;8.31;67.63;97492.59;4474414;32;33700;-84
2023/11/28 10:19:12;;;;;;;;;;;;;;;8.04;67.97;97489.31;4462412;32;33248;-84
2023/11/28 10:21:39;;;;;;;;;;;;;;;8.08;68.50;97488.13;4463548;32;33028;-85
2023/11/28 10:24:08;;;;;;;;;;;;;;;8.21;68.50;97486.31;4465344;32;34239;-85
2023/11/28 10:26:36;;;;;;;;;;;;;;;8.39;68.03;97490.28;4474024;32;33670;-82
2023/11/28 10:29:05;;;;;;;;;;;;;;;8.48;67.73;97482.69;4476656;32;33932;-82
2023/11/28 10:31:37;;;;;;;;;;;;;;;8.70;67.14;97482.81;4463779;32;34358;-82
2023/11/28 10:34:08;;;;;;;;;;;;;;;8.78;67.01;97485.72;4471858;32;34240;-82
2023/11/28 10:36:42;;;;;;;;;;;;;;;8.98;66.07;97473.75;4476939;32;33455;-82
2023/11/28 10:39:19;;;;;;;;;;;;;;;9.07;65.73;97474.81;4462496;32;32285;-82
2023/11/28 10:41:47;;;;;;;;;;;;;;;9.08;65.34;97466.84;4461879;32;33593;-82
2023/11/28 10:44:15;;;;;;;;;;;;;;;9.07;65.75;97473.06;4475315;32;33760;-82
2023/11/28 10:46:42;;;;;;;;;;;;;;;9.15;65.33;97469.84;4460954;32;33774;-82
2023/11/28 10:49:10;;;;;;;;;;;;;;;9.05;65.65;97468.84;4475145;32;32961;-82
2023/11/28 10:51:38;;;;;;;;;;;;;;;9.03;65.83;97457.59;4473695;32;34076;-82
2023/11/28 10:54:07;;;;;;;;;;;;;;;9.16;65.18;97463.59;4461537;32;34780;-82
2023/11/28 10:56:40;;;;;;;;;;;;;;;9.16;65.18;97458.34;4476527;32;34929;-82
2023/11/28 10:59:11;;;;;;;;;;;;;;;9.26;65.09;97466.38;4458668;32;32772;-82
2023/11/28 11:01:43;;;;;;;;;;;;;;;9.23;65.17;97462.22;4457677;32;34142;-82
2023/11/28 11:04:12;;;;;;;;;;;;;;;9.07;65.52;97464.28;4463475;32;33880;-82
2023/11/28 11:06:40;;;;;;;;;;;;;;;8.90;66.37;97469.03;4461714;32;33821;-82
2023/11/28 11:09:08;;;;;;;;;;;;;;;9.07;65.61;97459.03;4464731;32;33766;-82
2023/11/28 11:11:36;;;;;;;;;;;;;;;9.05;66.01;97456.53;4461221;32;33695;-82
2023/11/28 11:14:12;;;;;;;;;;;;;;;9.17;65.58;97460.03;4465532;32;35320;-82
2023/11/28 11:16:44;;;;;;;;;;;;;;;9.19;65.60;97466.03;4462397;32;33403;-82
2023/11/28 11:19:11;;;;;;;;;;;;;;;9.28;65.07;97467.97;4475616;32;34012;-83
2023/11/28 11:21:48;;;;;;;;;;;;;;;9.19;65.60;97468.66;4463368;32;33609;-82
2023/11/28 11:24:18;;;;;;;;;;;;;;;9.16;65.37;97464.47;4457297;32;34230;-83
2023/11/28 11:26:46;;;;;;;;;;;;;;;8.98;66.27;97461.41;4462035;32;34225;-83
2023/11/28 11:29:22;;;;;;;;;;;;;;;9.20;65.70;97462.44;4474578;32;32766;-82
2023/11/28 11:31:52;;;;;;;;;;;;;;;9.18;65.55;97453.81;4474283;32;35106;-82
2023/11/28 11:34:32;;;;;;;;;;;;;;;9.21;65.84;97457.06;4460614;32;33341;-82
2023/11/28 11:37:16;;;;;;;;;;;;;;;9.28;65.72;97449.53;4474828;32;33513;-82
2023/11/28 11:39:45;;;;;;;;;;;;;;;9.31;65.93;97454.56;4475333;32;34276;-82
2023/11/28 11:42:13;;;;;;;;;;;;;;;9.31;65.55;97451.09;4445539;32;33223;-83
2023/11/28 11:44:41;;;;;;;;;;;;;;;9.41;65.42;97445.00;4463345;32;33872;-82
2023/11/28 11:47:13;;;;;;;;;;;;;;;9.38;65.49;97447.87;4453930;32;33142;-83
2023/11/28 11:49:42;;;;;;;;;;;;;;;9.22;65.19;97452.63;4462588;32;34196;-86
2023/11/28 11:52:11;;;;;;;;;;;;;;;9.07;65.08;97453.75;4446512;32;33579;-84
2023/11/28 11:54:39;;;;;;;;;;;;;;;9.15;65.24;97452.25;4474271;32;34883;-84
2023/11/28 11:57:07;;;;;;;;;;;;;;;9.17;65.35;97460.03;4475908;32;34674;-84
2023/11/28 11:59:35;;;;;;;;;;;;;;;9.39;64.42;97444.28;4469026;32;32527;-84
2023/11/28 12:02:03;;;;;;;;;;;;;;;9.10;65.51;97448.28;4461722;32;34539;-84
2023/11/28 12:04:31;;;;;;;;;;;;;;;9.26;64.62;97448.81;4448558;32;33799;-84
2023/11/28 12:07:02;;;;;;;;;;;;;;;9.15;65.05;97446.13;4461220;32;33003;-84
2023/11/28 12:09:30;;;;;;;;;;;;;;;9.36;63.84;97451.59;4474443;31;32905;-84
2023/11/28 12:11:58;;;;;;;;;;;;;;;9.34;63.80;97451.69;4475988;32;34373;-84
2023/11/28 12:14:25;;;;;;;;;;;;;;;9.29;64.17;97451.19;4462262;32;34070;-84
2023/11/28 12:16:53;;;;;;;;;;;;;;;9.33;64.58;97455.28;4451246;32;33193;-84
2023/11/28 12:19:20;;;;;;;;;;;;;;;9.26;64.69;97447.94;4477538;32;34077;-84
2023/11/28 12:21:48;;;;;;;;;;;;;;;9.37;64.57;97443.56;4464024;32;34022;-84
2023/11/28 12:24:16;;;;;;;;;;;;;;;9.39;64.55;97438.16;4453656;32;33244;-84
2023/11/28 12:26:43;;;;;;;;;;;;;;;9.45;64.30;97441.19;4462222;32;33658;-84
2023/11/28 12:29:11;;;;;;;;;;;;;;;9.40;64.52;97434.56;4461730;32;32671;-85
2023/11/28 12:31:39;;;;;;;;;;;;;;;9.46;64.57;97434.97;4459769;32;33881;-84
2023/11/28 12:34:07;;;;;;;;;;;;;;;9.57;64.32;97430.66;4451533;32;33938;-84
2023/11/28 12:36:34;;;;;;;;;;;;;;;9.43;64.04;97432.56;4459517;32;34401;-84
2023/11/28 12:39:05;;;;;;;;;;;;;;;9.41;64.40;97438.91;4474605;32;33091;-84
2023/11/28 12:41:34;;;;;;;;;;;;;;;9.32;64.56;97434.34;4448300;32;33077;-84
2023/11/28 12:44:04;;;;;;;;;;;;;;;9.57;63.45;97431.50;4464706;32;33097;-84
2023/11/28 12:46:32;;;;;;;;;;;;;;;9.55;63.56;97443.13;4454306;32;33158;-84
2023/11/28 12:49:00;;;;;;;;;;;;;;;9.40;64.20;97435.44;4474185;32;34681;-84
2023/11/28 12:51:29;;;;;;;;;;;;;;;9.23;64.70;97443.78;4462787;32;33037;-84
2023/11/28 12:54:07;;;;;;;;;;;;;;;9.40;64.02;97429.31;4473776;32;34299;-84
2023/11/28 12:56:35;;;;;;;;;;;;;;;9.34;64.00;97435.88;4480576;31;33785;-84
2023/11/28 12:59:03;;;;;;;;;;;;;;;9.22;64.50;97436.84;4461829;32;32441;-84
2023/11/28 13:01:31;;;;;;;;;;;;;;;9.20;64.74;97444.84;4463403;32;33839;-84
2023/11/28 13:03:59;;;;;;;;;;;;;;;9.26;64.45;97447.94;4474734;32;34195;-84